Time;durP1;ratioP1;P1;durP2;ratioP2;P2;SDS_P1;SDS_P2;PMS_P1;PMS_P2;Temp;Humidity;BMP_temperature;BMP_pressure;BME280_temperature;BME280_humidity;BME280_pressure;Samples;Min_cycle;Max_cycle;Signal;HPM_P1;HPM_P2
2022/12/29 00:01:00;;;;;;;5.10;3.00;;;;;;;2.17;97.67;99225.77;104461;1302;22797;-33
2022/12/29 00:03:26;;;;;;;9.10;5.00;;;;;;;2.11;97.67;99226.88;104530;1294;22673;-30
2022/12/29 00:05:56;;;;;;;10.30;4.00;;;;;;;2.02;98.16;99214.12;104490;1305;22817;-30
2022/12/29 00:08:38;;;;;;;7.60;4.80;;;;;;;2.04;98.33;99209.73;104567;1294;23169;-29
2022/12/29 00:11:09;;;;;;;8.60;4.30;;;;;;;1.99;98.44;99199.23;104350;1295;22676;-35
2022/12/29 00:16:06;;;;;;;5.30;2.40;;;;;;;2.07;98.63;99194.27;104554;1305;22766;-33
2022/12/29 00:18:32;;;;;;;8.10;3.10;;;;;;;2.09;98.35;99192.11;104541;1304;23047;-30
2022/12/29 00:36:05;;;;;;;14.50;8.20;;;;;;;2.23;98.99;99188.50;104670;1294;24385;-28
2022/12/29 00:45:58;;;;;;;4.60;3.00;;;;;;;2.40;98.30;99181.16;104517;1295;22555;-29
2022/12/29 00:50:56;;;;;;;6.20;4.10;;;;;;;2.39;98.43;99178.41;104544;1300;22804;-33
2022/12/29 00:53:21;;;;;;;5.70;3.80;;;;;;;2.49;98.05;99180.48;104506;1305;22818;-35
2022/12/29 00:55:47;;;;;;;12.20;6.20;;;;;;;2.50;97.93;99179.98;104428;1304;22779;-34
2022/12/29 00:58:13;;;;;;;10.40;4.70;;;;;;;2.54;97.64;99185.78;104253;1292;22637;-33
2022/12/29 01:00:38;;;;;;;8.80;4.80;;;;;;;2.58;97.46;99187.45;104264;1304;24325;-33
2022/12/29 01:03:04;;;;;;;11.00;4.10;;;;;;;2.66;96.60;99186.59;104584;1304;22873;-33
2022/12/29 01:05:30;;;;;;;8.10;3.00;;;;;;;2.67;96.56;99177.27;104522;1300;23133;-33
2022/12/29 01:07:56;;;;;;;6.70;4.10;;;;;;;2.67;96.44;99177.13;104560;1295;23342;-33
2022/12/29 01:10:22;;;;;;;13.30;3.90;;;;;;;2.70;96.41;99179.75;104507;1294;22687;-33
2022/12/29 01:12:49;;;;;;;9.80;5.80;;;;;;;2.74;96.20;99168.38;104411;1305;24301;-33
2022/12/29 01:15:15;;;;;;;9.70;7.00;;;;;;;2.80;95.75;99165.69;104547;1294;25827;-33
2022/12/29 01:17:41;;;;;;;11.40;9.00;;;;;;;2.73;96.14;99156.34;104098;1305;25408;-32
2022/12/29 01:20:07;;;;;;;10.80;8.30;;;;;;;2.71;96.42;99153.70;104453;1300;22573;-33
2022/12/29 01:22:33;;;;;;;7.20;5.50;;;;;;;2.68;96.65;99157.64;104458;1303;24321;-29
2022/12/29 01:24:59;;;;;;;5.00;3.40;;;;;;;2.66;96.63;99159.81;104430;1301;24353;-34
2022/12/29 01:27:25;;;;;;;7.60;3.10;;;;;;;2.72;96.46;99150.39;104540;1303;22758;-33
2022/12/29 01:29:50;;;;;;;8.30;3.70;;;;;;;2.73;96.61;99148.85;104290;1305;23167;-29
2022/12/29 01:32:16;;;;;;;8.30;5.00;;;;;;;2.81;96.42;99146.20;104485;1300;22568;-29
2022/12/29 01:34:42;;;;;;;10.00;4.60;;;;;;;2.90;95.84;99145.96;104438;1301;24321;-29
2022/12/29 01:37:08;;;;;;;7.40;3.40;;;;;;;2.95;95.25;99145.17;104310;1303;24327;-29
2022/12/29 01:39:33;;;;;;;8.40;3.80;;;;;;;3.00;94.99;99144.58;104451;1298;22818;-33
2022/12/29 01:41:59;;;;;;;4.10;3.00;;;;;;;2.96;95.12;99141.50;104457;1304;24303;-29
2022/12/29 01:44:48;;;;;;;7.90;3.80;;;;;;;3.01;94.70;99136.40;104398;1299;22559;-34
2022/12/29 01:47:18;;;;;;;3.90;1.80;;;;;;;2.97;94.63;99139.98;104447;1305;23043;-29
2022/12/29 01:49:44;;;;;;;4.30;2.80;;;;;;;2.99;94.49;99146.33;104356;1305;22628;-29
2022/12/29 01:52:10;;;;;;;7.70;3.60;;;;;;;3.04;94.06;99145.41;104484;1302;22685;-35
2022/12/29 01:54:38;;;;;;;6.80;3.10;;;;;;;3.00;94.34;99137.05;104436;1306;23181;-35
2022/12/29 01:57:06;;;;;;;3.70;2.30;;;;;;;2.97;94.67;99131.66;104546;1304;23170;-34
2022/12/29 01:59:36;;;;;;;7.60;3.30;;;;;;;2.98;94.48;99122.19;104535;1304;23971;-30
2022/12/29 02:02:01;;;;;;;4.80;2.60;;;;;;;3.00;94.28;99116.50;104521;1305;25308;-33
2022/12/29 02:04:29;;;;;;;4.70;3.40;;;;;;;3.00;94.05;99121.80;104418;1304;23040;-30
2022/12/29 02:06:57;;;;;;;4.10;1.90;;;;;;;3.06;93.77;99120.14;104380;1295;22564;-30
2022/12/29 02:09:23;;;;;;;4.60;2.90;;;;;;;3.08;93.82;99118.38;104455;1306;24256;-30
2022/12/29 02:11:49;;;;;;;4.40;2.60;;;;;;;3.07;93.58;99112.98;104529;1294;24280;-30
2022/12/29 02:14:15;;;;;;;7.40;3.50;;;;;;;3.00;93.97;99109.42;104478;1299;22683;-34
2022/12/29 02:16:57;;;;;;;5.10;2.50;;;;;;;2.99;93.97;99099.05;104559;1304;22670;-30
2022/12/29 02:19:53;;;;;;;10.50;2.80;;;;;;;3.08;93.30;99100.40;104323;1300;22663;-30
2022/12/29 02:22:33;;;;;;;4.90;3.00;;;;;;;3.01;93.83;99102.44;104483;1304;24430;-31
2022/12/29 02:25:09;;;;;;;5.30;3.10;;;;;;;3.07;93.50;99107.33;104558;1294;23173;-30
2022/12/29 02:27:51;;;;;;;6.40;3.10;;;;;;;3.05;93.77;99098.79;104406;1300;25408;-34
2022/12/29 02:30:32;;;;;;;4.80;2.60;;;;;;;3.07;93.51;99084.16;104436;1305;24346;-34
2022/12/29 02:33:20;;;;;;;6.50;2.30;;;;;;;3.03;93.73;99072.70;104459;1302;23014;-33
2022/12/29 02:35:59;;;;;;;5.80;3.20;;;;;;;3.03;93.43;99064.51;104483;1304;24315;-30
2022/12/29 02:38:48;;;;;;;8.00;3.00;;;;;;;3.12;93.18;99062.02;104451;1291;26548;-30
2022/12/29 02:41:21;;;;;;;4.20;3.00;;;;;;;3.05;93.06;99060.98;104510;1295;23222;-30
2022/12/29 02:44:11;;;;;;;9.00;3.00;;;;;;;3.12;93.22;99059.36;104390;1305;23036;-30
2022/12/29 02:46:53;;;;;;;6.40;2.60;;;;;;;3.13;92.71;99065.30;104343;1295;22770;-33
2022/12/29 02:49:22;;;;;;;6.60;3.00;;;;;;;3.16;92.73;99061.46;104511;1305;22560;-35
2022/12/29 02:52:03;;;;;;;4.90;2.10;;;;;;;3.19;92.56;99057.29;104511;1300;22684;-32
2022/12/29 02:56:58;;;;;;;4.70;2.40;;;;;;;3.16;92.27;99060.68;104480;1303;22566;-29
2022/12/29 02:59:24;;;;;;;5.90;2.80;;;;;;;3.14;92.52;99061.82;104507;1295;22812;-33
2022/12/29 03:05:14;;;;;;;5.00;2.50;;;;;;;3.16;92.37;99061.21;104447;1294;23034;-33
2022/12/29 03:08:00;;;;;;;4.40;2.40;;;;;;;3.17;92.22;99057.96;104439;1297;24279;-33
2022/12/29 03:10:48;;;;;;;3.70;2.50;;;;;;;3.16;92.36;99057.40;104498;1295;22663;-33
2022/12/29 03:16:28;;;;;;;8.40;2.60;;;;;;;3.14;92.36;99054.40;104499;1305;22803;-29
2022/12/29 03:19:15;;;;;;;9.40;2.80;;;;;;;3.16;91.91;99054.52;104544;1294;22788;-34
2022/12/29 03:24:16;;;;;;;9.20;3.70;;;;;;;3.17;91.89;99045.42;104459;1305;22624;-34
2022/12/29 03:26:42;;;;;;;6.10;2.90;;;;;;;3.13;91.73;99048.89;104490;1305;22689;-30
2022/12/29 03:29:07;;;;;;;4.50;2.70;;;;;;;3.07;91.86;99046.30;104552;1291;25271;-34
2022/12/29 03:31:34;;;;;;;3.90;2.20;;;;;;;3.14;91.47;99046.46;104529;1305;22642;-29
2022/12/29 03:34:00;;;;;;;4.80;3.90;;;;;;;3.15;91.46;99040.30;104464;1306;22796;-34
2022/12/29 03:36:40;;;;;;;6.00;2.60;;;;;;;3.16;91.20;99044.26;104425;1295;22803;-34
2022/12/29 03:39:11;;;;;;;4.80;3.10;;;;;;;3.18;90.85;99038.09;104510;1303;22567;-30
2022/12/29 03:41:37;;;;;;;5.20;2.80;;;;;;;3.17;90.80;99037.07;104512;1306;25320;-29
2022/12/29 03:44:06;;;;;;;6.60;3.50;;;;;;;3.14;90.97;99029.98;104409;1306;22675;-29
2022/12/29 03:46:31;;;;;;;4.50;2.90;;;;;;;3.15;90.86;99026.84;104442;1294;22598;-29
2022/12/29 03:48:57;;;;;;;4.00;3.00;;;;;;;3.11;91.08;99028.71;104500;1303;22578;-34
2022/12/29 03:51:23;;;;;;;4.90;3.60;;;;;;;3.13;90.68;99023.34;104434;1294;22776;-29
2022/12/29 03:53:49;;;;;;;8.30;3.00;;;;;;;3.04;91.00;99019.81;104476;1305;23314;-34
2022/12/29 03:56:14;;;;;;;6.10;2.90;;;;;;;2.93;91.43;99015.74;104505;1296;23040;-29
2022/12/29 03:58:40;;;;;;;5.30;3.20;;;;;;;2.91;91.77;99015.73;104462;1294;22677;-30
2022/12/29 04:01:07;;;;;;;5.30;3.10;;;;;;;2.88;91.70;99010.42;104431;1305;24435;-29
2022/12/29 04:03:32;;;;;;;5.20;2.50;;;;;;;2.84;92.12;99008.71;104414;1305;22567;-34
2022/12/29 04:05:58;;;;;;;3.70;2.20;;;;;;;2.81;92.18;99007.92;104434;1291;22567;-34
2022/12/29 04:08:24;;;;;;;7.40;2.60;;;;;;;2.83;92.03;99003.46;104396;1294;23140;-33
2022/12/29 04:10:50;;;;;;;6.20;2.90;;;;;;;2.91;91.73;98998.42;104441;1294;22650;-30
2022/12/29 04:13:16;;;;;;;4.60;3.30;;;;;;;2.87;91.74;99003.02;104399;1303;22579;-30
2022/12/29 04:15:43;;;;;;;6.20;4.00;;;;;;;2.86;92.13;99001.64;104289;1305;22666;-33
2022/12/29 04:18:09;;;;;;;5.10;2.80;;;;;;;2.90;92.04;98993.61;104507;1303;23014;-29
2022/12/29 04:23:04;;;;;;;5.10;3.60;;;;;;;2.91;91.96;98989.70;104438;1291;22660;-30
2022/12/29 04:25:31;;;;;;;5.50;3.00;;;;;;;2.97;91.70;98989.94;104513;1305;22779;-39
2022/12/29 04:27:57;;;;;;;7.90;4.30;;;;;;;2.96;91.63;98988.52;104462;1302;22644;-30
2022/12/29 04:30:22;;;;;;;4.40;3.10;;;;;;;2.92;91.90;98980.77;104466;1302;22678;-29
2022/12/29 04:32:48;;;;;;;3.70;1.90;;;;;;;2.99;91.21;98986.58;104433;1301;22804;-29
2022/12/29 04:35:14;;;;;;;5.60;3.30;;;;;;;3.00;91.41;98989.88;104418;1294;23085;-29
2022/12/29 05:14:43;;;;;;;6.50;3.10;;;;;;;3.07;90.59;98982.42;104531;1295;558243;-33
2022/12/29 05:20:04;;;;;;;3.60;2.70;;;;;;;3.15;89.22;98993.44;104894;1298;24371;-32
2022/12/29 05:22:30;;;;;;;4.50;2.80;;;;;;;3.10;89.38;98995.54;104830;1301;22564;-35
2022/12/29 05:24:56;;;;;;;4.60;1.90;;;;;;;3.14;89.16;98998.81;104932;1291;23034;-35
2022/12/29 05:27:22;;;;;;;7.70;2.40;;;;;;;3.08;89.58;99004.59;104850;1291;22673;-28
2022/12/29 05:29:48;;;;;;;5.50;2.30;;;;;;;3.12;89.60;99011.23;104789;1292;24424;-35
2022/12/29 05:32:14;;;;;;;4.40;3.00;;;;;;;3.14;89.81;99022.05;104979;1302;24307;-28
2022/12/29 05:34:40;;;;;;;7.40;2.50;;;;;;;3.19;89.50;99013.52;104805;1292;22510;-29
2022/12/29 05:37:05;;;;;;;7.70;2.90;;;;;;;3.21;89.51;99009.11;104995;1279;22557;-30
2022/12/29 05:39:32;;;;;;;6.20;3.30;;;;;;;3.25;89.24;99010.05;104794;1292;22812;-30
2022/12/29 05:41:59;;;;;;;4.60;3.00;;;;;;;3.25;89.31;99014.15;104939;1302;22819;-34
2022/12/29 05:44:25;;;;;;;7.20;2.90;;;;;;;3.26;89.58;99008.73;104902;1292;23035;-29
2022/12/29 05:46:51;;;;;;;4.40;2.50;;;;;;;3.30;89.77;99007.46;104757;1291;23038;-34
2022/12/29 05:49:17;;;;;;;15.50;3.80;;;;;;;3.24;89.92;99004.04;104766;1292;22635;-29
2022/12/29 05:54:36;;;;;;;24.60;3.30;;;;;;;3.25;89.52;99003.66;104897;1302;22560;-34
2022/12/29 05:57:01;;;;;;;3.60;2.80;;;;;;;3.26;89.51;99002.88;104859;1292;24422;-29
2022/12/29 05:59:27;;;;;;;7.60;2.40;;;;;;;3.31;89.07;99000.80;104894;1299;23036;-33
2022/12/29 06:01:53;;;;;;;7.50;3.50;;;;;;;3.31;89.36;98984.58;104792;1293;23051;-34
2022/12/29 06:04:19;;;;;;;4.40;2.40;;;;;;;3.33;89.86;98982.73;104801;1301;23151;-29
2022/12/29 06:06:45;;;;;;;4.40;2.70;;;;;;;3.21;91.11;98971.17;104849;1302;22791;-30
2022/12/29 06:09:11;;;;;;;4.60;3.10;;;;;;;3.25;91.36;98960.03;104737;1291;22557;-34
2022/12/29 06:11:37;;;;;;;2.90;1.80;;;;;;;3.17;91.89;98954.35;104891;1292;22650;-29
2022/12/29 06:14:03;;;;;;;7.40;3.20;;;;;;;3.10;92.34;98950.83;104817;1292;22665;-33
2022/12/29 06:16:29;;;;;;;9.40;2.10;;;;;;;3.03;92.76;98939.33;104936;1292;22662;-33
2022/12/29 06:18:55;;;;;;;7.30;3.00;;;;;;;2.99;93.05;98939.58;104833;1292;23145;-30
2022/12/29 06:21:21;;;;;;;7.60;2.40;;;;;;;2.95;93.68;98933.83;104908;1302;24407;-30
2022/12/29 06:23:46;;;;;;;5.00;2.70;;;;;;;2.99;93.69;98935.17;104909;1292;22660;-31
2022/12/29 06:26:13;;;;;;;5.40;2.40;;;;;;;3.06;92.94;98941.90;104811;1293;22682;-32
2022/12/29 06:28:39;;;;;;;5.00;3.30;;;;;;;3.14;92.61;98936.23;104791;1292;22785;-34
2022/12/29 06:31:04;;;;;;;8.50;3.60;;;;;;;3.17;92.42;98942.30;104822;1292;22663;-35
2022/12/29 06:33:30;;;;;;;5.10;3.10;;;;;;;3.08;92.76;98943.06;104822;1302;22656;-31
2022/12/29 06:35:56;;;;;;;5.10;2.80;;;;;;;3.13;92.44;98941.86;104728;1292;22640;-28
2022/12/29 06:38:22;;;;;;;4.30;2.70;;;;;;;3.24;91.64;98942.76;104725;1302;23161;-32
2022/12/29 06:40:48;;;;;;;3.20;2.60;;;;;;;3.27;91.01;98949.38;104853;1289;23152;-30
2022/12/29 06:43:14;;;;;;;3.80;3.00;;;;;;;3.22;91.34;98954.14;104891;1292;23153;-33
2022/12/29 06:45:40;;;;;;;3.60;2.50;;;;;;;3.33;90.92;98956.19;104886;1292;23290;-31
2022/12/29 06:48:06;;;;;;;3.50;2.40;;;;;;;3.40;90.30;98955.25;104743;1292;22557;-36
2022/12/29 06:50:32;;;;;;;6.10;2.50;;;;;;;3.44;89.97;98954.53;104840;1291;22988;-35
2022/12/29 06:52:58;;;;;;;4.90;2.40;;;;;;;3.50;89.61;98955.84;104911;1292;22901;-34
2022/12/29 06:55:24;;;;;;;3.70;2.20;;;;;;;3.47;89.50;98957.86;104881;1292;22805;-30
2022/12/29 06:57:50;;;;;;;6.70;4.00;;;;;;;3.49;89.14;98965.26;104816;1288;22679;-30
2022/12/29 07:00:16;;;;;;;9.60;3.30;;;;;;;3.53;88.96;98967.13;104758;1292;22662;-30
2022/12/29 07:02:42;;;;;;;5.70;2.70;;;;;;;3.50;89.18;98967.69;104772;1302;23161;-31
2022/12/29 07:05:10;;;;;;;7.20;2.90;;;;;;;3.51;89.07;98956.95;104903;1292;22807;-34
2022/12/29 07:07:35;;;;;;;16.30;3.10;;;;;;;3.51;89.10;98954.41;104816;1292;23160;-30
2022/12/29 07:10:01;;;;;;;4.20;2.10;;;;;;;3.55;88.58;98945.03;104778;1292;22654;-34
2022/12/29 07:12:27;;;;;;;5.00;3.30;;;;;;;3.56;88.52;98946.48;104831;1301;23129;-30
2022/12/29 07:14:53;;;;;;;6.20;3.30;;;;;;;3.57;88.64;98949.75;104895;1301;23164;-34
2022/12/29 07:17:19;;;;;;;3.70;2.60;;;;;;;3.60;88.50;98944.51;104831;1302;22787;-33
2022/12/29 07:19:46;;;;;;;5.20;3.00;;;;;;;3.59;88.54;98939.23;104995;1289;23171;-34
2022/12/29 07:22:12;;;;;;;4.40;2.30;;;;;;;3.59;88.60;98940.69;104805;1292;23033;-30
2022/12/29 07:24:38;;;;;;;5.10;2.40;;;;;;;3.61;88.66;98939.36;104893;1292;22656;-34
2022/12/29 07:27:04;;;;;;;5.70;2.40;;;;;;;3.67;88.14;98937.52;104830;1302;23031;-30
2022/12/29 07:29:30;;;;;;;8.00;4.10;;;;;;;3.62;88.36;98939.64;104883;1292;22663;-35
2022/12/29 07:31:56;;;;;;;4.90;2.80;;;;;;;3.69;88.28;98943.71;104850;1302;22667;-31
2022/12/29 07:34:22;;;;;;;4.00;3.00;;;;;;;3.84;87.47;98947.90;104834;1292;22659;-34
2022/12/29 07:36:48;;;;;;;8.50;2.50;;;;;;;3.93;86.46;98952.61;104728;1302;22891;-34
2022/12/29 07:39:13;;;;;;;7.70;3.40;;;;;;;3.99;86.36;98949.83;104845;1290;23037;-35
2022/12/29 07:41:39;;;;;;;5.80;3.20;;;;;;;4.01;86.44;98950.20;104780;1302;23024;-31
2022/12/29 07:44:05;;;;;;;6.20;3.50;;;;;;;4.07;85.89;98950.91;104575;1301;25645;-30
2022/12/29 07:46:31;;;;;;;9.20;4.00;;;;;;;4.11;86.06;98944.86;104721;1298;22555;-31
2022/12/29 07:48:57;;;;;;;5.00;2.10;;;;;;;4.15;85.94;98941.17;104895;1302;23029;-34
2022/12/29 07:51:23;;;;;;;8.80;3.10;;;;;;;4.19;86.09;98941.30;104879;1292;22996;-33
2022/12/29 07:53:49;;;;;;;3.80;2.30;;;;;;;4.27;85.32;98939.94;104912;1292;22782;-37
2022/12/29 07:56:15;;;;;;;5.10;3.50;;;;;;;4.28;85.30;98941.06;104768;1302;22560;-34
2022/12/29 07:58:41;;;;;;;7.00;3.20;;;;;;;4.32;85.53;98939.23;104775;1289;24258;-30
2022/12/29 08:01:07;;;;;;;5.30;2.90;;;;;;;4.42;84.67;98945.66;104879;1302;23151;-30
2022/12/29 08:03:33;;;;;;;8.10;2.70;;;;;;;4.49;84.67;98946.52;104880;1298;22653;-30
2022/12/29 08:05:59;;;;;;;6.40;3.10;;;;;;;4.55;84.54;98945.70;104722;1291;22584;-34
2022/12/29 08:08:25;;;;;;;10.10;3.70;;;;;;;4.59;84.03;98955.58;104734;1292;22815;-35
2022/12/29 08:10:51;;;;;;;10.30;3.00;;;;;;;4.59;84.57;98960.30;104946;1292;23161;-34
2022/12/29 08:13:16;;;;;;;8.50;3.60;;;;;;;4.62;84.37;98966.67;104791;1292;22659;-34
2022/12/29 08:15:42;;;;;;;5.80;3.50;;;;;;;4.63;84.32;98957.73;104829;1292;22509;-35
2022/12/29 08:18:08;;;;;;;4.30;2.80;;;;;;;4.63;84.54;98958.14;104776;1292;22931;-32
2022/12/29 08:20:34;;;;;;;2.50;1.40;;;;;;;4.66;84.27;98959.35;104823;1289;23179;-31
2022/12/29 08:23:00;;;;;;;9.30;2.30;;;;;;;4.64;83.89;98957.48;104866;1302;22560;-35
2022/12/29 08:25:26;;;;;;;3.80;2.80;;;;;;;4.62;84.00;98964.09;104861;1292;23219;-30
2022/12/29 08:27:51;;;;;;;6.40;3.40;;;;;;;4.62;83.89;98959.13;104816;1292;22559;-30
2022/12/29 08:30:17;;;;;;;7.70;3.80;;;;;;;4.67;83.76;98960.52;104929;1292;22845;-35
2022/12/29 08:32:43;;;;;;;5.60;2.90;;;;;;;4.64;83.79;98959.71;104807;1292;22656;-31
2022/12/29 08:35:09;;;;;;;5.10;3.50;;;;;;;4.64;84.03;98956.43;104800;1302;23151;-31
2022/12/29 08:37:35;;;;;;;5.60;2.80;;;;;;;4.73;84.08;98965.93;104618;1295;22943;-35
2022/12/29 08:40:03;;;;;;;16.10;3.60;;;;;;;4.77;83.24;98966.31;104886;1302;22560;-30
2022/12/29 08:42:30;;;;;;;7.20;2.30;;;;;;;4.84;83.26;98956.15;104709;1301;24215;-31
2022/12/29 08:44:57;;;;;;;5.50;3.10;;;;;;;4.83;83.35;98957.48;104852;1292;22798;-29
2022/12/29 08:47:24;;;;;;;13.90;3.20;;;;;;;4.81;83.06;98957.06;104801;1289;25591;-34
2022/12/29 08:49:49;;;;;;;8.50;4.10;;;;;;;4.92;82.93;98961.63;104905;1292;22944;-34
2022/12/29 08:52:15;;;;;;;4.50;1.70;;;;;;;4.95;83.17;98973.34;104569;1301;22776;-34
2022/12/29 08:54:41;;;;;;;4.20;2.70;;;;;;;5.05;82.51;98975.31;104784;1302;22991;-34
2022/12/29 08:57:06;;;;;;;4.70;2.50;;;;;;;5.07;82.61;98977.67;104703;1292;22796;-34
2022/12/29 08:59:32;;;;;;;4.90;3.20;;;;;;;5.10;82.86;98979.09;104847;1292;23237;-31
2022/12/29 09:01:58;;;;;;;9.80;3.30;;;;;;;5.13;82.30;98987.86;104790;1301;22666;-34
2022/12/29 09:04:23;;;;;;;9.00;3.30;;;;;;;5.15;82.23;98986.20;104855;1302;22666;-29
2022/12/29 09:06:49;;;;;;;4.50;2.70;;;;;;;5.22;82.31;98988.83;104775;1292;22631;-34
2022/12/29 09:09:15;;;;;;;6.90;3.00;;;;;;;5.23;82.61;98986.98;104901;1292;23183;-31
2022/12/29 09:11:41;;;;;;;3.60;2.40;;;;;;;5.30;81.92;98984.95;104805;1302;23026;-30
2022/12/29 09:14:07;;;;;;;6.50;3.50;;;;;;;5.35;82.05;98982.42;104733;1302;23045;-39
2022/12/29 09:16:33;;;;;;;7.10;2.70;;;;;;;5.38;81.94;98980.81;104827;1289;23038;-31
2022/12/29 09:18:59;;;;;;;7.40;3.40;;;;;;;5.46;81.76;98985.07;104935;1295;22660;-35
2022/12/29 09:21:27;;;;;;;5.70;3.20;;;;;;;5.50;82.19;98985.24;104821;1302;24343;-31
2022/12/29 09:23:52;;;;;;;9.20;3.40;;;;;;;5.63;82.18;98978.65;104842;1292;23166;-32
2022/12/29 09:26:18;;;;;;;2.90;1.90;;;;;;;5.79;81.53;98974.48;104791;1292;22667;-35
2022/12/29 09:28:45;;;;;;;4.00;2.00;;;;;;;6.06;79.71;98965.70;104937;1282;23032;-31
2022/12/29 09:31:11;;;;;;;4.20;3.00;;;;;;;6.20;79.08;98966.06;104769;1292;22663;-31
2022/12/29 09:33:36;;;;;;;5.40;2.80;;;;;;;6.35;79.05;98966.98;104929;1292;23045;-35
2022/12/29 09:36:02;;;;;;;9.30;3.40;;;;;;;6.51;78.65;98960.96;104935;1295;22660;-33
2022/12/29 09:38:28;;;;;;;6.50;3.20;;;;;;;6.60;78.00;98956.39;104825;1302;23152;-30
2022/12/29 09:40:56;;;;;;;4.90;3.00;;;;;;;6.72;77.87;98960.59;104721;1292;23175;-30
2022/12/29 09:43:44;;;;;;;4.20;2.20;;;;;;;6.71;77.27;98955.73;104896;1302;24458;-30
2022/12/29 09:46:25;;;;;;;4.10;3.10;;;;;;;6.77;76.72;98952.70;104688;1292;22739;-30
2022/12/29 09:49:09;;;;;;;5.20;3.90;;;;;;;6.82;77.29;98955.18;104712;1302;22803;-29
2022/12/29 09:51:36;;;;;;;5.80;3.10;;;;;;;6.93;76.53;98957.73;104791;1302;22553;-30
2022/12/29 09:54:19;;;;;;;3.90;2.30;;;;;;;6.92;76.17;98950.27;104805;1292;22612;-35
2022/12/29 09:56:45;;;;;;;6.50;3.90;;;;;;;7.01;76.30;98948.66;104911;1302;23173;-30
2022/12/29 09:59:14;;;;;;;7.90;3.60;;;;;;;7.00;76.85;98950.31;104831;1302;23295;-34
2022/12/29 10:01:46;;;;;;;7.40;3.00;;;;;;;7.05;75.90;98948.39;104813;1292;22596;-31
2022/12/29 10:04:12;;;;;;;24.60;3.20;;;;;;;7.05;75.33;98949.84;104905;1295;25313;-31
2022/12/29 10:06:51;;;;;;;8.30;3.10;;;;;;;7.03;75.22;98948.09;104848;1298;24231;-34
2022/12/29 10:09:22;;;;;;;4.80;3.10;;;;;;;7.08;75.84;98943.88;104853;1292;24259;-31
2022/12/29 10:12:06;;;;;;;4.80;2.80;;;;;;;7.13;75.43;98949.30;104769;1292;22776;-31
2022/12/29 10:14:55;;;;;;;4.70;2.60;;;;;;;7.21;75.15;98954.23;104840;1291;24368;-35
2022/12/29 10:17:46;;;;;;;9.70;3.30;;;;;;;7.17;75.33;98951.39;104909;1292;22682;-35
2022/12/29 10:20:35;;;;;;;5.60;2.80;;;;;;;7.13;75.98;98950.06;104879;1289;22664;-31
2022/12/29 10:23:23;;;;;;;4.00;2.90;;;;;;;7.13;75.92;98949.86;104852;1299;22666;-35
2022/12/29 10:25:49;;;;;;;4.40;2.70;;;;;;;7.16;76.07;98949.70;104737;1302;22832;-31
2022/12/29 10:28:22;;;;;;;3.50;2.50;;;;;;;7.18;76.48;98948.30;104890;1292;22947;-35
2022/12/29 10:30:49;;;;;;;6.30;3.10;;;;;;;7.33;75.70;98946.72;104880;1292;25531;-35
2022/12/29 10:33:23;;;;;;;6.90;3.60;;;;;;;7.44;76.00;98948.40;104944;1289;22564;-35
2022/12/29 10:35:49;;;;;;;11.00;3.30;;;;;;;7.45;75.24;98952.45;104910;1292;23135;-31
2022/12/29 11:44:13;;;;;;;4.30;3.00;;;;;;;8.29;77.24;98903.19;104531;1294;557445;-32
2022/12/29 11:46:38;;;;;;;5.60;3.20;;;;;;;8.25;75.74;98903.75;104486;1302;277641;-35
2022/12/29 11:49:04;;;;;;;7.50;3.40;;;;;;;8.02;77.20;98905.82;104774;1298;23037;-32
2022/12/29 11:51:38;;;;;;;16.20;4.20;;;;;;;7.96;77.76;98907.70;104857;1292;22791;-32
2022/12/29 11:54:03;;;;;;;;;;;;;;;7.97;78.26;98907.59;104842;1289;22665;-36
2022/12/29 11:56:37;;;;;;;5.60;3.50;;;;;;;8.06;77.74;98899.94;104945;1292;22658;-35
2022/12/29 11:59:37;;;;;;;9.90;4.30;;;;;;;8.19;77.02;98897.54;104812;1302;22663;-31
2022/12/29 12:02:23;;;;;;;6.30;4.40;;;;;;;8.21;76.46;98898.67;104933;1292;22654;-35
2022/12/29 12:04:51;;;;;;;5.00;3.60;;;;;;;8.42;76.04;98896.80;104737;1302;22661;-31
2022/12/29 12:07:20;;;;;;;5.00;3.20;;;;;;;8.69;75.86;98899.23;104899;1292;22658;-32
2022/12/29 12:09:54;;;;;;;8.10;3.50;;;;;;;8.92;74.61;98900.28;104857;1292;24297;-35
2022/12/29 12:12:38;;;;;;;6.40;4.20;;;;;;;9.16;74.39;98898.00;104835;1301;25260;-34
2022/12/29 12:15:04;;;;;;;8.70;5.30;;;;;;;9.34;72.29;98899.10;104903;1292;23151;-35
2022/12/29 12:17:37;;;;;;;5.80;2.80;;;;;;;9.27;71.24;98891.56;104809;1292;23037;-35
2022/12/29 12:20:17;;;;;;;13.00;6.70;;;;;;;9.03;71.57;98887.85;104843;1291;25071;-35
2022/12/29 12:22:47;;;;;;;8.30;4.00;;;;;;;8.87;72.04;98884.02;104832;1289;22598;-37
2022/12/29 12:25:18;;;;;;;10.70;6.60;;;;;;;8.84;71.18;98883.09;104882;1289;22672;-35
2022/12/29 12:27:57;;;;;;;12.30;4.80;;;;;;;8.70;72.16;98880.70;104874;1302;24390;-32
2022/12/29 12:30:24;;;;;;;10.60;5.10;;;;;;;8.48;72.54;98885.02;104854;1291;22787;-31
2022/12/29 12:32:57;;;;;;;9.00;3.50;;;;;;;8.36;72.47;98884.01;104936;1292;23125;-33
2022/12/29 12:35:47;;;;;;;6.40;3.00;;;;;;;8.14;74.34;98880.91;104934;1291;22615;-32
2022/12/29 12:38:31;;;;;;;5.60;3.20;;;;;;;8.07;74.19;98875.54;104821;1302;22663;-32
2022/12/29 12:41:13;;;;;;;5.80;3.40;;;;;;;7.97;75.08;98877.11;104979;1302;23123;-35
2022/12/29 12:43:49;;;;;;;6.50;3.20;;;;;;;7.84;75.95;98878.59;104692;1298;25917;-32
2022/12/29 12:46:30;;;;;;;6.30;4.60;;;;;;;7.66;76.42;98879.61;104718;1293;25421;-35
2022/12/29 12:49:15;;;;;;;4.00;3.30;;;;;;;7.61;76.48;98875.20;104532;1301;22700;-31
2022/12/29 12:52:05;;;;;;;7.90;2.80;;;;;;;7.39;77.62;98876.48;104741;1302;22659;-35
2022/12/29 12:54:46;;;;;;;11.20;5.60;;;;;;;7.28;77.73;98872.85;104827;1292;22634;-34
2022/12/29 12:57:29;;;;;;;7.10;3.60;;;;;;;7.17;78.55;98875.42;104828;1303;23038;-34
2022/12/29 13:00:05;;;;;;;6.30;3.90;;;;;;;7.17;78.83;98868.94;104782;1302;22645;-34
2022/12/29 13:03:02;;;;;;;8.60;4.30;;;;;;;7.01;79.26;98874.58;104907;1292;22669;-34
2022/12/29 13:05:52;;;;;;;11.90;4.30;;;;;;;6.98;79.66;98873.84;104796;1302;23117;-34
2022/12/29 13:08:41;;;;;;;10.50;4.70;;;;;;;6.99;79.77;98867.98;104793;1292;22816;-30
2022/12/29 13:11:31;;;;;;;8.00;4.60;;;;;;;6.96;79.47;98866.27;104822;1291;23025;-30
2022/12/29 13:14:20;;;;;;;11.10;5.20;;;;;;;6.83;79.99;98862.76;104676;1292;22552;-35
2022/12/29 13:17:10;;;;;;;10.00;5.10;;;;;;;6.88;79.67;98863.40;104698;1292;22864;-30
2022/12/29 13:19:53;;;;;;;12.30;5.20;;;;;;;6.82;79.70;98872.85;104772;1288;22785;-30
2022/12/29 13:22:38;;;;;;;7.70;5.30;;;;;;;6.70;80.52;98863.01;104686;1303;24268;-31
2022/12/29 13:25:28;;;;;;;8.40;4.50;;;;;;;6.67;80.76;98866.08;104740;1292;24267;-35
2022/12/29 13:28:06;;;;;;;11.70;4.90;;;;;;;6.63;81.59;98868.90;104726;1289;23038;-31
2022/12/29 13:30:34;;;;;;;6.80;4.50;;;;;;;6.59;81.91;98868.48;104837;1302;22647;-35
2022/12/29 13:33:17;;;;;;;6.40;3.90;;;;;;;6.62;81.28;98870.11;104743;1302;22813;-31
2022/12/29 13:36:06;;;;;;;9.20;5.00;;;;;;;6.53;81.75;98878.27;104806;1282;22656;-35
2022/12/29 13:38:38;;;;;;;9.30;4.00;;;;;;;6.52;81.77;98878.92;104708;1302;22571;-31
2022/12/29 13:41:18;;;;;;;11.00;5.40;;;;;;;6.47;82.30;98876.67;104830;1291;22637;-35
2022/12/29 13:43:46;;;;;;;25.90;4.50;;;;;;;6.41;82.89;98881.77;104798;1292;24304;-35
2022/12/29 13:46:14;;;;;;;7.10;4.80;;;;;;;6.41;83.32;98884.80;104763;1292;22838;-31
2022/12/29 13:48:46;;;;;;;9.40;5.50;;;;;;;6.32;83.85;98884.33;104698;1300;22574;-35
2022/12/29 13:51:12;;;;;;;6.90;3.40;;;;;;;6.21;84.52;98889.86;104758;1302;22552;-31
2022/12/29 13:53:51;;;;;;;8.10;3.80;;;;;;;6.19;84.49;98890.09;104790;1302;24501;-31
2022/12/29 13:56:38;;;;;;;6.80;3.80;;;;;;;6.24;84.39;98889.99;104634;1289;22666;-31
2022/12/29 13:59:19;;;;;;;8.70;4.70;;;;;;;6.21;84.66;98889.90;104683;1292;22573;-31
2022/12/29 14:01:58;;;;;;;8.40;5.30;;;;;;;6.18;84.90;98886.82;104714;1303;22699;-35
2022/12/29 14:04:28;;;;;;;9.30;5.10;;;;;;;6.17;84.72;98882.99;104874;1289;23384;-35
2022/12/29 14:07:13;;;;;;;9.90;3.40;;;;;;;6.21;84.78;98889.38;104706;1289;22667;-35
2022/12/29 14:09:46;;;;;;;13.90;6.10;;;;;;;6.17;85.28;98890.30;104658;1303;24281;-35
2022/12/29 14:12:28;;;;;;;4.10;2.70;;;;;;;6.13;85.51;98890.64;104741;1291;24381;-31
2022/12/29 14:14:54;;;;;;;10.80;4.50;;;;;;;6.06;86.13;98889.54;104755;1302;24265;-35
2022/12/29 14:17:20;;;;;;;9.90;5.00;;;;;;;6.03;86.41;98887.55;104781;1303;23025;-33